Time;durP1;ratioP1;P1;durP2;ratioP2;P2;SDS_P1;SDS_P2;PMS_P1;PMS_P2;Temp;Humidity;BMP_temperature;BMP_pressure;BME280_temperature;BME280_humidity;BME280_pressure;Samples;Min_cycle;Max_cycle;Signal;HPM_P1;HPM_P2
2022/07/03 00:01:23;;;;;;;7.83;7.13;;;;;;;;;;5073206;28;20375;-86
2022/07/03 00:03:48;;;;;;;5.95;5.45;;;;;;;;;;5073089;28;20503;-86
2022/07/03 00:06:14;;;;;;;5.00;3.83;;;;;;;;;;5075671;28;20463;-86
2022/07/03 00:08:41;;;;;;;4.47;3.60;;;;;;;;;;5073163;28;20861;-86
2022/07/03 00:11:09;;;;;;;4.10;3.70;;;;;;;;;;5072990;28;20524;-86
2022/07/03 00:13:35;;;;;;;3.42;3.00;;;;;;;;;;5073091;28;20420;-86
2022/07/03 00:16:01;;;;;;;3.03;2.67;;;;;;;;;;5074043;28;20392;-86
2022/07/03 00:18:27;;;;;;;2.30;2.10;;;;;;;;;;5053127;28;20436;-85
2022/07/03 00:21:06;;;;;;;2.65;2.20;;;;;;;;;;5052801;28;20404;-86
2022/07/03 00:23:41;;;;;;;3.72;1.60;;;;;;;;;;5052912;28;20427;-86
2022/07/03 00:26:08;;;;;;;3.35;1.90;;;;;;;;;;5052825;28;20378;-86
2022/07/03 00:28:34;;;;;;;2.05;1.80;;;;;;;;;;5051891;28;20412;-86
2022/07/03 00:31:00;;;;;;;1.70;1.60;;;;;;;;;;5052868;28;20373;-86
2022/07/03 00:33:28;;;;;;;2.00;1.50;;;;;;;;;;5052633;28;20459;-86
2022/07/03 00:35:55;;;;;;;3.20;1.48;;;;;;;;;;5069835;28;20946;-86
2022/07/03 00:38:22;;;;;;;3.78;1.30;;;;;;;;;;5072426;28;20429;-86
2022/07/03 00:40:48;;;;;;;1.75;1.40;;;;;;;;;;5071402;28;20467;-85
2022/07/03 00:43:17;;;;;;;1.92;1.27;;;;;;;;;;5072518;28;20506;-86
2022/07/03 00:45:46;;;;;;;1.83;1.27;;;;;;;;;;5072803;28;20382;-86
2022/07/03 00:48:13;;;;;;;1.48;1.23;;;;;;;;;;5072486;28;20803;-86
2022/07/03 00:50:44;;;;;;;2.28;1.40;;;;;;;;;;5072491;28;20383;-86
2022/07/03 00:53:11;;;;;;;2.40;1.42;;;;;;;;;;5072563;28;20371;-86
2022/07/03 00:55:41;;;;;;;1.80;1.30;;;;;;;;;;5072462;28;20376;-86
2022/07/03 00:58:08;;;;;;;2.13;1.20;;;;;;;;;;5072406;28;20383;-86
2022/07/03 01:00:35;;;;;;;2.60;1.38;;;;;;;;;;5072274;28;20372;-86
2022/07/03 01:03:10;;;;;;;1.75;1.63;;;;;;;;;;5072297;28;20407;-86
2022/07/03 01:05:40;;;;;;;2.80;1.40;;;;;;;;;;5072244;28;20408;-86
2022/07/03 01:08:17;;;;;;;2.03;1.50;;;;;;;;;;5071629;28;20427;-85
2022/07/03 01:10:55;;;;;;;2.50;1.45;;;;;;;;;;5072244;28;20383;-85
2022/07/03 01:13:24;;;;;;;1.67;1.58;;;;;;;;;;5072261;28;20433;-86
2022/07/03 01:16:09;;;;;;;1.60;1.25;;;;;;;;;;5072079;28;20384;-85
2022/07/03 01:18:48;;;;;;;2.15;1.40;;;;;;;;;;5072256;28;20437;-85
2022/07/03 01:21:20;;;;;;;1.50;1.40;;;;;;;;;;5072145;28;20403;-86
2022/07/03 01:24:04;;;;;;;1.75;1.52;;;;;;;;;;5072266;28;20403;-86
2022/07/03 01:26:32;;;;;;;2.03;1.30;;;;;;;;;;5071764;28;20376;-86
2022/07/03 01:29:02;;;;;;;2.88;1.30;;;;;;;;;;5072203;28;20415;-85
2022/07/03 01:31:30;;;;;;;2.08;1.40;;;;;;;;;;5071944;28;20383;-85
2022/07/03 01:33:58;;;;;;;2.47;1.33;;;;;;;;;;5072398;28;20409;-85
2022/07/03 01:36:25;;;;;;;1.23;1.10;;;;;;;;;;5071949;28;20383;-86
2022/07/03 01:38:51;;;;;;;1.93;1.20;;;;;;;;;;5072442;28;20390;-85
2022/07/03 01:41:17;;;;;;;1.42;1.25;;;;;;;;;;5071984;28;20376;-85
2022/07/03 01:43:50;;;;;;;1.60;1.25;;;;;;;;;;5073734;28;20398;-86
2022/07/03 01:46:19;;;;;;;1.95;1.35;;;;;;;;;;5064401;28;20466;-86
2022/07/03 01:48:46;;;;;;;1.35;1.25;;;;;;;;;;5071891;28;20398;-86
2022/07/03 01:51:15;;;;;;;2.85;1.30;;;;;;;;;;5071852;28;20408;-85
2022/07/03 01:53:45;;;;;;;1.98;1.30;;;;;;;;;;5071866;28;20386;-85
2022/07/03 01:56:11;;;;;;;3.00;1.40;;;;;;;;;;5072010;28;20436;-86
2022/07/03 01:58:37;;;;;;;1.65;1.33;;;;;;;;;;5071827;28;20386;-86
2022/07/03 02:01:03;;;;;;;2.38;1.38;;;;;;;;;;5071820;28;20384;-86
2022/07/03 02:03:31;;;;;;;2.92;1.35;;;;;;;;;;5071643;28;20487;-86
2022/07/03 02:06:09;;;;;;;2.90;1.30;;;;;;;;;;5070469;28;20387;-86
2022/07/03 02:08:53;;;;;;;3.60;1.43;;;;;;;;;;5071727;28;20475;-86
2022/07/03 02:11:21;;;;;;;1.77;1.50;;;;;;;;;;5071630;28;20378;-85
2022/07/03 02:14:09;;;;;;;1.27;1.17;;;;;;;;;;5081435;28;20378;-85
2022/07/03 02:16:42;;;;;;;2.28;1.38;;;;;;;;;;5072731;28;20383;-86
2022/07/03 02:19:10;;;;;;;4.50;1.40;;;;;;;;;;5073222;28;20414;-86
2022/07/03 02:21:39;;;;;;;1.50;1.30;;;;;;;;;;5075145;28;20514;-85
2022/07/03 02:24:08;;;;;;;2.58;1.38;;;;;;;;;;5075235;28;20407;-86
2022/07/03 02:26:34;;;;;;;1.70;1.20;;;;;;;;;;5075253;28;20368;-85
2022/07/03 02:29:05;;;;;;;1.45;1.20;;;;;;;;;;5069856;28;20423;-86
2022/07/03 02:31:52;;;;;;;1.40;1.30;;;;;;;;;;5071338;28;20509;-86
2022/07/03 02:34:23;;;;;;;2.40;1.30;;;;;;;;;;5073174;28;20375;-85
2022/07/03 02:36:50;;;;;;;1.23;1.13;;;;;;;;;;5072738;28;20384;-84
2022/07/03 02:39:32;;;;;;;1.60;1.10;;;;;;;;;;5073634;28;20408;-85
2022/07/03 02:42:01;;;;;;;2.10;1.25;;;;;;;;;;5073986;28;20388;-86
2022/07/03 02:44:42;;;;;;;1.67;1.17;;;;;;;;;;5074943;28;20379;-85
2022/07/03 02:47:21;;;;;;;1.58;1.20;;;;;;;;;;5074825;28;20382;-85
2022/07/03 02:49:53;;;;;;;1.75;1.05;;;;;;;;;;5073483;28;20757;-86
2022/07/03 02:52:38;;;;;;;2.08;1.15;;;;;;;;;;5074744;28;20467;-85
2022/07/03 02:55:24;;;;;;;2.55;1.10;;;;;;;;;;5074998;28;20387;-85
2022/07/03 02:57:55;;;;;;;2.00;1.30;;;;;;;;;;5067331;28;20406;-86
2022/07/03 03:00:23;;;;;;;1.98;1.17;;;;;;;;;;5074455;28;20383;-85
2022/07/03 03:02:56;;;;;;;1.67;1.23;;;;;;;;;;5074626;28;20901;-85
2022/07/03 03:05:25;;;;;;;1.77;1.25;;;;;;;;;;5074439;28;20398;-86
2022/07/03 03:08:27;;;;;;;1.88;1.17;;;;;;;;;;5074535;28;20737;-85
2022/07/03 03:10:58;;;;;;;1.80;1.10;;;;;;;;;;5027467;28;20429;-85
2022/07/03 03:13:26;;;;;;;2.25;1.10;;;;;;;;;;5065306;28;20399;-86
2022/07/03 03:15:52;;;;;;;1.75;1.27;;;;;;;;;;5072787;28;20388;-86
2022/07/03 03:18:22;;;;;;;1.63;1.30;;;;;;;;;;5072519;28;20414;-85
2022/07/03 03:20:48;;;;;;;1.70;1.10;;;;;;;;;;5072386;28;20861;-84
2022/07/03 03:23:33;;;;;;;2.65;1.20;;;;;;;;;;5074002;28;20507;-85
2022/07/03 03:25:59;;;;;;;1.42;1.30;;;;;;;;;;5071963;28;20380;-85
2022/07/03 03:28:26;;;;;;;2.28;1.40;;;;;;;;;;5073976;28;20391;-85
2022/07/03 03:30:52;;;;;;;3.40;1.20;;;;;;;;;;5072327;28;20445;-85
2022/07/03 03:33:18;;;;;;;1.55;1.40;;;;;;;;;;5074015;28;20398;-85
2022/07/03 03:35:44;;;;;;;1.40;1.30;;;;;;;;;;5074320;28;20372;-85
2022/07/03 03:38:10;;;;;;;1.50;1.40;;;;;;;;;;5073989;28;20466;-85
2022/07/03 03:40:36;;;;;;;1.70;1.20;;;;;;;;;;5072959;28;20412;-85
2022/07/03 03:43:06;;;;;;;1.95;1.13;;;;;;;;;;5073732;28;20399;-85
2022/07/03 03:45:32;;;;;;;2.13;1.30;;;;;;;;;;5073827;28;20371;-85
2022/07/03 03:47:58;;;;;;;2.13;1.35;;;;;;;;;;5076237;28;20378;-85
2022/07/03 03:50:24;;;;;;;1.58;1.30;;;;;;;;;;5072233;28;20886;-85
2022/07/03 03:52:50;;;;;;;2.63;1.02;;;;;;;;;;5073853;28;20452;-85
2022/07/03 03:55:16;;;;;;;2.38;1.13;;;;;;;;;;5073471;28;20477;-85
2022/07/03 03:57:42;;;;;;;1.60;1.40;;;;;;;;;;5073531;28;20504;-85
2022/07/03 04:00:08;;;;;;;2.10;1.10;;;;;;;;;;5073324;28;20464;-85
2022/07/03 04:02:34;;;;;;;1.63;1.05;;;;;;;;;;5073356;28;20415;-85
2022/07/03 04:05:01;;;;;;;1.45;0.90;;;;;;;;;;5073382;28;20446;-85
2022/07/03 04:07:27;;;;;;;1.97;1.20;;;;;;;;;;5073279;28;20415;-85
2022/07/03 04:09:53;;;;;;;1.55;1.10;;;;;;;;;;5074504;28;20814;-85
2022/07/03 04:12:19;;;;;;;2.70;1.30;;;;;;;;;;5074355;28;20388;-85
2022/07/03 04:14:45;;;;;;;1.55;1.20;;;;;;;;;;5075661;28;20379;-85
2022/07/03 04:17:11;;;;;;;4.25;1.40;;;;;;;;;;5073483;28;20376;-85
2022/07/03 04:19:37;;;;;;;1.92;1.35;;;;;;;;;;5072797;28;20391;-85
2022/07/03 04:22:08;;;;;;;1.70;1.23;;;;;;;;;;5073134;28;20384;-85
2022/07/03 04:24:36;;;;;;;2.00;1.20;;;;;;;;;;5072513;28;20456;-85
2022/07/03 04:27:02;;;;;;;2.38;1.20;;;;;;;;;;5072930;28;20380;-85
2022/07/03 04:29:28;;;;;;;1.55;1.20;;;;;;;;;;5072672;28;20395;-85
2022/07/03 04:31:54;;;;;;;2.28;1.30;;;;;;;;;;5072024;28;20380;-85
2022/07/03 04:34:20;;;;;;;1.30;1.00;;;;;;;;;;5072859;28;20383;-85
2022/07/03 04:36:46;;;;;;;1.58;1.10;;;;;;;;;;5072716;28;20861;-85
2022/07/03 04:39:12;;;;;;;1.30;1.10;;;;;;;;;;5072712;28;20411;-85
2022/07/03 04:41:38;;;;;;;2.17;1.17;;;;;;;;;;5072274;28;20832;-85
2022/07/03 04:44:04;;;;;;;1.00;1.00;;;;;;;;;;5072017;28;20400;-85
2022/07/03 04:46:30;;;;;;;1.77;1.20;;;;;;;;;;5072507;28;20450;-85
2022/07/03 04:48:56;;;;;;;2.90;1.30;;;;;;;;;;5072556;28;20860;-85
2022/07/03 04:51:22;;;;;;;2.97;1.10;;;;;;;;;;5072491;28;20390;-85
2022/07/03 04:53:48;;;;;;;2.90;1.30;;;;;;;;;;5072447;28;20536;-86
2022/07/03 04:56:14;;;;;;;0.95;0.95;;;;;;;;;;5072687;28;20419;-86
2022/07/03 04:58:40;;;;;;;1.60;1.20;;;;;;;;;;5072476;28;20501;-85
2022/07/03 05:01:06;;;;;;;1.00;0.90;;;;;;;;;;5071372;28;20948;-86
2022/07/03 05:03:32;;;;;;;1.92;1.05;;;;;;;;;;5072301;28;20554;-86
2022/07/03 05:05:59;;;;;;;3.00;1.10;;;;;;;;;;5072520;28;20459;-85
2022/07/03 05:08:25;;;;;;;1.20;1.10;;;;;;;;;;5072279;28;20372;-85
2022/07/03 05:10:51;;;;;;;1.20;1.10;;;;;;;;;;5072237;28;20435;-86
2022/07/03 05:13:17;;;;;;;2.22;1.25;;;;;;;;;;5072619;28;20441;-86
2022/07/03 05:15:43;;;;;;;1.35;1.20;;;;;;;;;;5072099;28;20380;-86
2022/07/03 05:18:09;;;;;;;2.40;1.20;;;;;;;;;;5072239;28;20445;-86
2022/07/03 05:20:35;;;;;;;1.52;1.20;;;;;;;;;;5071951;28;20408;-86
2022/07/03 05:23:01;;;;;;;2.00;1.38;;;;;;;;;;5072140;28;20495;-86
2022/07/03 05:25:28;;;;;;;1.20;1.10;;;;;;;;;;5072185;28;20380;-86
2022/07/03 05:27:54;;;;;;;1.45;1.13;;;;;;;;;;5071950;28;20411;-86
2022/07/03 05:30:21;;;;;;;0.98;0.98;;;;;;;;;;5072014;28;20372;-86
2022/07/03 05:32:47;;;;;;;1.97;1.20;;;;;;;;;;5071056;28;20760;-86
2022/07/03 05:35:13;;;;;;;1.35;1.00;;;;;;;;;;5071993;28;20376;-86
2022/07/03 05:37:39;;;;;;;1.25;1.10;;;;;;;;;;5072078;28;20887;-86
2022/07/03 05:40:06;;;;;;;2.75;1.08;;;;;;;;;;5071928;28;20388;-86
2022/07/03 05:42:32;;;;;;;1.80;1.17;;;;;;;;;;5071905;28;20399;-85
2022/07/03 05:44:58;;;;;;;1.67;1.00;;;;;;;;;;5071844;28;20463;-86
2022/07/03 05:47:24;;;;;;;1.83;1.30;;;;;;;;;;5071912;28;20383;-86
2022/07/03 05:49:50;;;;;;;1.10;1.00;;;;;;;;;;5070927;28;20400;-85
2022/07/03 05:52:16;;;;;;;2.00;1.25;;;;;;;;;;5071075;28;20376;-86
2022/07/03 05:54:42;;;;;;;1.77;1.10;;;;;;;;;;5072590;28;20748;-86
2022/07/03 05:57:08;;;;;;;1.52;1.05;;;;;;;;;;5075691;28;20412;-86
2022/07/03 05:59:34;;;;;;;1.60;1.10;;;;;;;;;;5075695;28;20414;-86
2022/07/03 06:02:00;;;;;;;1.10;0.90;;;;;;;;;;5073536;28;20376;-86
2022/07/03 06:04:27;;;;;;;1.13;1.03;;;;;;;;;;5055715;28;20378;-86
2022/07/03 06:06:54;;;;;;;1.00;1.00;;;;;;;;;;5055579;28;20385;-86
2022/07/03 06:09:20;;;;;;;1.73;1.00;;;;;;;;;;5055559;28;20381;-86
2022/07/03 06:11:47;;;;;;;2.70;1.05;;;;;;;;;;5055502;28;20396;-86
2022/07/03 06:14:13;;;;;;;1.40;1.27;;;;;;;;;;5077126;28;20388;-86
2022/07/03 06:16:39;;;;;;;1.40;1.30;;;;;;;;;;5072114;28;20408;-83
2022/07/03 06:19:05;;;;;;;2.70;1.48;;;;;;;;;;5075415;28;20470;-86
2022/07/03 06:21:32;;;;;;;1.30;1.20;;;;;;;;;;5077370;28;20444;-86
2022/07/03 06:23:58;;;;;;;1.67;1.38;;;;;;;;;;5073953;28;20894;-86
2022/07/03 06:26:24;;;;;;;1.47;1.37;;;;;;;;;;5075293;28;20382;-88
2022/07/03 06:28:50;;;;;;;1.42;1.33;;;;;;;;;;5075159;28;20387;-88
2022/07/03 06:31:16;;;;;;;3.08;1.50;;;;;;;;;;5070956;28;20389;-87
2022/07/03 06:33:42;;;;;;;2.10;1.60;;;;;;;;;;5073361;28;20442;-88
2022/07/03 06:36:08;;;;;;;1.50;1.40;;;;;;;;;;5074938;28;20930;-87
2022/07/03 06:38:34;;;;;;;1.92;1.50;;;;;;;;;;5065186;28;20407;-88
2022/07/03 06:41:00;;;;;;;2.08;1.67;;;;;;;;;;5073508;28;20411;-88
2022/07/03 06:43:26;;;;;;;2.40;1.50;;;;;;;;;;5073020;28;20417;-87
2022/07/03 06:45:52;;;;;;;1.97;1.77;;;;;;;;;;5073977;28;20474;-89
2022/07/03 06:48:18;;;;;;;2.05;1.80;;;;;;;;;;5073507;28;20371;-88
2022/07/03 06:50:45;;;;;;;3.88;1.48;;;;;;;;;;5074687;28;20378;-88
2022/07/03 06:53:11;;;;;;;2.45;1.45;;;;;;;;;;5074880;28;20420;-89
2022/07/03 06:55:37;;;;;;;1.63;1.50;;;;;;;;;;5075003;28;20487;-90
2022/07/03 06:58:03;;;;;;;1.50;1.40;;;;;;;;;;5074680;28;20884;-87
2022/07/03 07:00:29;;;;;;;1.35;1.10;;;;;;;;;;5067904;28;21017;-88
2022/07/03 07:02:55;;;;;;;1.40;1.30;;;;;;;;;;5071476;28;20924;-89
2022/07/03 07:05:22;;;;;;;1.33;1.23;;;;;;;;;;5069538;28;20411;-87
2022/07/03 07:07:48;;;;;;;1.70;1.27;;;;;;;;;;5072324;28;20472;-88
2022/07/03 07:10:14;;;;;;;2.50;1.30;;;;;;;;;;5072226;28;20868;-89
2022/07/03 07:12:40;;;;;;;1.48;1.05;;;;;;;;;;5071005;28;20388;-88
2022/07/03 07:15:06;;;;;;;1.63;1.10;;;;;;;;;;5072102;28;20399;-88
2022/07/03 07:17:32;;;;;;;1.70;1.20;;;;;;;;;;5073052;28;20437;-89
2022/07/03 07:19:58;;;;;;;1.98;1.30;;;;;;;;;;5074066;28;20418;-89
2022/07/03 07:22:25;;;;;;;1.45;1.10;;;;;;;;;;5072895;28;20972;-89
2022/07/03 07:24:51;;;;;;;2.40;1.90;;;;;;;;;;5062286;28;20368;-88
2022/07/03 07:27:17;;;;;;;2.85;1.80;;;;;;;;;;5072597;28;20748;-88
2022/07/03 07:29:43;;;;;;;1.65;1.45;;;;;;;;;;5064153;28;20388;-88
2022/07/03 07:32:09;;;;;;;1.55;1.10;;;;;;;;;;5067403;28;20479;-87
2022/07/03 07:34:35;;;;;;;1.30;1.00;;;;;;;;;;5071687;28;20463;-88
2022/07/03 07:37:01;;;;;;;1.87;1.20;;;;;;;;;;5072188;28;20376;-88
2022/07/03 07:39:27;;;;;;;1.20;1.10;;;;;;;;;;5071885;28;20956;-87
2022/07/03 07:41:53;;;;;;;1.00;0.90;;;;;;;;;;5064862;28;20470;-88
2022/07/03 07:44:19;;;;;;;1.50;0.80;;;;;;;;;;5074096;28;20399;-88
2022/07/03 07:46:45;;;;;;;0.90;0.70;;;;;;;;;;5069821;28;20462;-87
2022/07/03 07:49:11;;;;;;;1.03;0.70;;;;;;;;;;5068328;28;20440;-88
2022/07/03 07:51:37;;;;;;;1.30;0.60;;;;;;;;;;5072456;28;20375;-88
2022/07/03 07:54:03;;;;;;;0.65;0.55;;;;;;;;;;5072700;28;20380;-90
2022/07/03 07:56:29;;;;;;;2.47;0.70;;;;;;;;;;5072760;28;20384;-87
2022/07/03 07:58:55;;;;;;;0.85;0.68;;;;;;;;;;5054672;28;20392;-87
2022/07/03 08:06:50;;;;;;;0.90;0.70;;;;;;;;;;5068893;28;20405;-89
2022/07/03 08:09:16;;;;;;;0.80;0.50;;;;;;;;;;5072166;28;20379;-89
2022/07/03 08:11:42;;;;;;;1.55;0.60;;;;;;;;;;5072831;28;20407;-90
2022/07/03 08:14:10;;;;;;;1.35;0.60;;;;;;;;;;5072765;28;20371;-90
2022/07/03 08:16:38;;;;;;;1.30;0.50;;;;;;;;;;5071548;28;20473;-90
2022/07/03 08:19:04;;;;;;;0.68;0.45;;;;;;;;;;5070510;28;20471;-90
2022/07/03 08:21:30;;;;;;;0.63;0.40;;;;;;;;;;5072584;28;20395;-91
2022/07/03 08:23:56;;;;;;;0.80;0.50;;;;;;;;;;5060393;28;20437;-90
2022/07/03 08:26:22;;;;;;;1.50;0.50;;;;;;;;;;5071159;28;20384;-90
2022/07/03 08:28:48;;;;;;;1.10;0.50;;;;;;;;;;5072624;28;20390;-91
2022/07/03 08:31:14;;;;;;;1.52;0.50;;;;;;;;;;5074505;28;20749;-90
2022/07/03 08:33:40;;;;;;;0.40;0.40;;;;;;;;;;5072701;28;20405;-87
2022/07/03 08:36:06;;;;;;;1.52;0.60;;;;;;;;;;5070212;28;20800;-90
2022/07/03 08:38:33;;;;;;;1.80;0.55;;;;;;;;;;5072411;28;20386;-89
2022/07/03 08:41:00;;;;;;;1.30;0.40;;;;;;;;;;5072644;28;20438;-90
2022/07/03 08:43:26;;;;;;;1.00;0.52;;;;;;;;;;5066316;28;20412;-89
2022/07/03 08:45:53;;;;;;;0.50;0.50;;;;;;;;;;5071443;28;20379;-89
2022/07/03 08:48:21;;;;;;;1.55;0.52;;;;;;;;;;5071902;28;20407;-89
2022/07/03 08:50:47;;;;;;;0.50;0.30;;;;;;;;;;5071855;28;20379;-90
2022/07/03 08:53:13;;;;;;;0.40;0.40;;;;;;;;;;5072661;28;20963;-90
2022/07/03 08:55:39;;;;;;;3.60;0.70;;;;;;;;;;5072615;28;20384;-90
2022/07/03 08:58:06;;;;;;;1.67;0.50;;;;;;;;;;5073377;28;20394;-90
2022/07/03 09:00:32;;;;;;;1.00;0.40;;;;;;;;;;5067296;28;20867;-90
2022/07/03 09:03:00;;;;;;;1.10;0.50;;;;;;;;;;5052565;28;20507;-90
2022/07/03 09:05:26;;;;;;;0.50;0.40;;;;;;;;;;5052385;28;20739;-90
2022/07/03 09:07:52;;;;;;;1.15;0.50;;;;;;;;;;5061542;28;20384;-90
2022/07/03 09:10:19;;;;;;;1.38;0.60;;;;;;;;;;5070972;28;20394;-88
2022/07/03 09:12:45;;;;;;;1.20;0.52;;;;;;;;;;5072362;28;20380;-89
2022/07/03 09:15:12;;;;;;;0.50;0.50;;;;;;;;;;5070286;28;20482;-91
2022/07/03 09:17:38;;;;;;;0.30;0.30;;;;;;;;;;5066776;28;20418;-91
2022/07/03 09:20:07;;;;;;;1.10;0.88;;;;;;;;;;5066051;28;20388;-91
2022/07/03 09:22:35;;;;;;;1.25;0.70;;;;;;;;;;5069855;28;20399;-90
2022/07/03 09:25:01;;;;;;;0.98;0.52;;;;;;;;;;5071294;28;20433;-90
2022/07/03 09:27:29;;;;;;;1.30;0.70;;;;;;;;;;5071140;28;20388;-90
2022/07/03 09:30:06;;;;;;;1.27;0.50;;;;;;;;;;5070275;28;20379;-90
2022/07/03 09:32:39;;;;;;;0.73;0.55;;;;;;;;;;5071845;28;20919;-90
2022/07/03 09:35:20;;;;;;;0.88;0.70;;;;;;;;;;5073745;28;20384;-91
2022/07/03 09:37:53;;;;;;;1.58;0.70;;;;;;;;;;5077468;28;20415;-89
2022/07/03 09:40:19;;;;;;;1.20;0.70;;;;;;;;;;5074649;28;20395;-89
2022/07/03 09:43:01;;;;;;;1.10;0.70;;;;;;;;;;5071855;28;20403;-91
2022/07/03 09:45:28;;;;;;;1.73;0.70;;;;;;;;;;5072594;28;20931;-90
2022/07/03 09:47:54;;;;;;;2.80;1.20;;;;;;;;;;5073965;28;20490;-91
2022/07/03 09:50:20;;;;;;;0.95;0.60;;;;;;;;;;5054149;28;20446;-91
2022/07/03 09:52:47;;;;;;;1.30;0.90;;;;;;;;;;5052060;28;20435;-90
2022/07/03 09:55:17;;;;;;;0.55;0.55;;;;;;;;;;5053894;28;20870;-88
2022/07/03 09:57:44;;;;;;;3.55;1.27;;;;;;;;;;5069075;28;20399;-90
2022/07/03 10:00:12;;;;;;;1.40;1.00;;;;;;;;;;5063728;28;20437;-89
2022/07/03 10:02:56;;;;;;;1.60;0.60;;;;;;;;;;5070958;28;20407;-90
2022/07/03 10:05:23;;;;;;;1.00;0.60;;;;;;;;;;5070152;28;20375;-89
2022/07/03 10:07:50;;;;;;;0.63;0.60;;;;;;;;;;5071229;28;20417;-91
2022/07/03 10:10:17;;;;;;;0.85;0.50;;;;;;;;;;5071072;28;20376;-89
2022/07/03 10:12:44;;;;;;;0.80;0.55;;;;;;;;;;5073971;28;20395;-90
2022/07/03 10:15:11;;;;;;;1.13;0.98;;;;;;;;;;5068320;28;20379;-89
2022/07/03 10:17:37;;;;;;;0.43;0.40;;;;;;;;;;5069054;28;20388;-90
2022/07/03 10:20:03;;;;;;;0.52;0.50;;;;;;;;;;5069056;28;20410;-90
2022/07/03 10:22:36;;;;;;;0.98;0.60;;;;;;;;;;5067507;28;20392;-90
2022/07/03 10:25:02;;;;;;;1.25;0.50;;;;;;;;;;5067756;28;20382;-90
2022/07/03 10:27:30;;;;;;;2.05;0.40;;;;;;;;;;5067722;28;20421;-90
2022/07/03 10:29:56;;;;;;;0.82;0.50;;;;;;;;;;5070717;28;20378;-89
2022/07/03 10:32:22;;;;;;;1.20;0.50;;;;;;;;;;5071066;28;20774;-90
2022/07/03 10:34:48;;;;;;;0.63;0.40;;;;;;;;;;5071379;28;20376;-90
2022/07/03 10:37:16;;;;;;;1.42;0.50;;;;;;;;;;5071541;28;20865;-89
2022/07/03 10:39:49;;;;;;;1.92;0.70;;;;;;;;;;5067752;28;20380;-90
2022/07/03 10:45:14;;;;;;;1.02;0.40;;;;;;;;;;5074559;28;20387;-91
2022/07/03 10:47:42;;;;;;;0.70;0.60;;;;;;;;;;5075081;28;20380;-89
2022/07/03 10:50:10;;;;;;;0.63;0.50;;;;;;;;;;5058511;28;20541;-90
2022/07/03 10:52:36;;;;;;;2.65;0.60;;;;;;;;;;5068766;28;20419;-89
2022/07/03 10:55:03;;;;;;;0.70;0.47;;;;;;;;;;5071208;28;20384;-90
2022/07/03 10:57:29;;;;;;;0.60;0.60;;;;;;;;;;5071859;28;20927;-91
2022/07/03 10:59:55;;;;;;;0.80;0.32;;;;;;;;;;5071399;28;20376;-91
2022/07/03 11:02:32;;;;;;;0.40;0.35;;;;;;;;;;5072340;28;20376;-89
2022/07/03 11:04:58;;;;;;;1.40;0.70;;;;;;;;;;5070056;28;20880;-91
2022/07/03 11:07:32;;;;;;;1.48;1.10;;;;;;;;;;5070155;28;20776;-90
2022/07/03 11:10:13;;;;;;;0.90;0.50;;;;;;;;;;5071632;28;20383;-90
2022/07/03 11:12:58;;;;;;;0.90;0.60;;;;;;;;;;5069052;28;21018;-90
2022/07/03 11:15:27;;;;;;;0.90;0.60;;;;;;;;;;5072136;28;20462;-90
2022/07/03 11:20:32;;;;;;;1.50;0.60;;;;;;;;;;5074525;28;20888;-90
2022/07/03 11:23:04;;;;;;;0.70;0.50;;;;;;;;;;5069083;28;20408;-90
2022/07/03 11:25:47;;;;;;;1.05;0.50;;;;;;;;;;5070490;28;20410;-90
2022/07/03 11:28:34;;;;;;;0.80;0.50;;;;;;;;;;5070408;28;20387;-90
2022/07/03 11:31:15;;;;;;;1.00;0.73;;;;;;;;;;5073451;28;20376;-90
2022/07/03 11:33:48;;;;;;;3.90;0.65;;;;;;;;;;5073439;28;20467;-89
2022/07/03 11:36:19;;;;;;;0.95;0.55;;;;;;;;;;5077898;28;20469;-87
2022/07/03 11:38:46;;;;;;;1.07;0.40;;;;;;;;;;5077454;28;20901;-88
2022/07/03 11:41:13;;;;;;;1.00;0.85;;;;;;;;;;5066121;28;20385;-86
2022/07/03 11:43:46;;;;;;;1.33;0.90;;;;;;;;;;5053176;28;20420;-86
2022/07/03 11:46:17;;;;;;;0.70;0.63;;;;;;;;;;5054335;28;20465;-85
2022/07/03 11:48:43;;;;;;;2.20;1.13;;;;;;;;;;5053211;28;20394;-86
2022/07/03 11:51:09;;;;;;;1.00;0.80;;;;;;;;;;5053291;28;20370;-87
2022/07/03 11:53:37;;;;;;;2.03;0.73;;;;;;;;;;5053587;28;20386;-87
2022/07/03 11:56:14;;;;;;;0.98;0.55;;;;;;;;;;5053694;28;20417;-86
2022/07/03 11:58:45;;;;;;;1.92;0.57;;;;;;;;;;5054072;28;20439;-86
2022/07/03 12:01:12;;;;;;;2.00;1.30;;;;;;;;;;5073472;28;20382;-87
2022/07/03 12:03:38;;;;;;;0.98;0.55;;;;;;;;;;5072031;28;20849;-89
2022/07/03 12:06:04;;;;;;;2.00;0.50;;;;;;;;;;5073792;28;20438;-89
2022/07/03 12:08:34;;;;;;;0.73;0.50;;;;;;;;;;5073419;28;20903;-90
2022/07/03 12:11:01;;;;;;;0.70;0.50;;;;;;;;;;5073541;28;20462;-89
2022/07/03 12:13:30;;;;;;;2.25;0.52;;;;;;;;;;5075910;28;20871;-89
2022/07/03 12:16:01;;;;;;;0.40;0.40;;;;;;;;;;5073219;28;20384;-89
2022/07/03 12:18:27;;;;;;;1.33;0.50;;;;;;;;;;5073392;28;20415;-87
2022/07/03 12:20:53;;;;;;;0.93;0.50;;;;;;;;;;5072767;28;20407;-87
2022/07/03 12:23:19;;;;;;;1.30;0.50;;;;;;;;;;5072699;28;20411;-87
2022/07/03 12:25:45;;;;;;;0.77;0.38;;;;;;;;;;5072958;28;20856;-87
2022/07/03 12:28:12;;;;;;;1.17;0.50;;;;;;;;;;5073028;28;20516;-86
2022/07/03 12:30:38;;;;;;;1.40;0.50;;;;;;;;;;5072484;28;20399;-86
2022/07/03 12:33:05;;;;;;;0.63;0.40;;;;;;;;;;5075357;28;20865;-86
2022/07/03 12:35:31;;;;;;;0.90;0.50;;;;;;;;;;5073031;28;20434;-86
2022/07/03 12:37:57;;;;;;;1.25;0.55;;;;;;;;;;5072828;28;20376;-87
2022/07/03 12:40:23;;;;;;;1.90;0.50;;;;;;;;;;5072766;28;20382;-86
2022/07/03 12:42:50;;;;;;;0.52;0.47;;;;;;;;;;5057177;28;20413;-87
2022/07/03 12:45:17;;;;;;;0.55;0.47;;;;;;;;;;5052955;28;20894;-87
2022/07/03 12:47:43;;;;;;;1.30;0.57;;;;;;;;;;5052680;28;20378;-87
2022/07/03 12:50:09;;;;;;;2.22;0.50;;;;;;;;;;5052567;28;20803;-86
2022/07/03 12:52:50;;;;;;;0.82;0.70;;;;;;;;;;5052701;28;20435;-87
2022/07/03 12:55:31;;;;;;;1.80;0.85;;;;;;;;;;5052579;28;20378;-86
2022/07/03 13:00:58;;;;;;;0.68;0.47;;;;;;;;;;5071871;28;20509;-87
2022/07/03 13:03:27;;;;;;;0.73;0.50;;;;;;;;;;5071554;28;20888;-87
2022/07/03 13:05:53;;;;;;;0.80;0.55;;;;;;;;;;5072453;28;20380;-87
2022/07/03 13:08:19;;;;;;;1.30;0.60;;;;;;;;;;5071933;28;20394;-87
2022/07/03 13:10:54;;;;;;;1.50;1.00;;;;;;;;;;5072493;28;20849;-86
2022/07/03 13:13:20;;;;;;;1.20;0.90;;;;;;;;;;5072440;28;20376;-86
2022/07/03 13:15:46;;;;;;;1.20;0.70;;;;;;;;;;5055402;28;20392;-87
2022/07/03 13:18:12;;;;;;;2.30;2.10;;;;;;;;;;5052246;28;20377;-86
2022/07/03 13:20:38;;;;;;;2.10;1.80;;;;;;;;;;5052360;28;20859;-87
2022/07/03 13:23:05;;;;;;;0.85;0.70;;;;;;;;;;5051184;28;20451;-86
2022/07/03 13:25:32;;;;;;;1.05;0.50;;;;;;;;;;5052217;28;20528;-87
2022/07/03 13:28:08;;;;;;;1.02;0.60;;;;;;;;;;5057246;28;20376;-86
2022/07/03 13:30:34;;;;;;;1.13;0.50;;;;;;;;;;5072167;28;20430;-86
2022/07/03 13:33:00;;;;;;;1.65;0.50;;;;;;;;;;5072034;28;20389;-86
2022/07/03 13:35:26;;;;;;;1.80;0.50;;;;;;;;;;5072135;28;20380;-86
2022/07/03 13:37:52;;;;;;;1.27;0.52;;;;;;;;;;5072033;28;20466;-86
2022/07/03 13:40:19;;;;;;;0.73;0.50;;;;;;;;;;5072014;28;20380;-86
2022/07/03 13:42:45;;;;;;;1.00;0.52;;;;;;;;;;5071899;28;20411;-87
2022/07/03 13:45:11;;;;;;;1.15;0.57;;;;;;;;;;5072483;28;20382;-87
2022/07/03 13:47:37;;;;;;;1.63;0.88;;;;;;;;;;5074528;28;20380;-88
2022/07/03 13:50:04;;;;;;;1.25;0.60;;;;;;;;;;5071855;28;20455;-86
2022/07/03 13:52:30;;;;;;;1.30;0.50;;;;;;;;;;5072393;28;20399;-87
2022/07/03 13:54:56;;;;;;;0.88;0.70;;;;;;;;;;5071839;28;20481;-86
2022/07/03 13:57:22;;;;;;;1.60;0.60;;;;;;;;;;5072347;28;20459;-86
2022/07/03 13:59:48;;;;;;;1.47;0.50;;;;;;;;;;5071729;28;20379;-87
2022/07/03 14:02:14;;;;;;;1.77;0.80;;;;;;;;;;5071879;28;20375;-87
2022/07/03 14:04:40;;;;;;;0.95;0.50;;;;;;;;;;5071727;28;20461;-87
2022/07/03 14:07:06;;;;;;;1.25;0.80;;;;;;;;;;5071718;28;20372;-86
2022/07/03 14:09:32;;;;;;;0.70;0.50;;;;;;;;;;5071717;28;20372;-87
2022/07/03 14:11:59;;;;;;;0.93;0.60;;;;;;;;;;5071747;28;20372;-86
2022/07/03 14:14:25;;;;;;;2.28;0.85;;;;;;;;;;5072191;28;20795;-86
2022/07/03 14:16:51;;;;;;;1.85;1.60;;;;;;;;;;5088977;28;20373;-86
2022/07/03 14:19:17;;;;;;;1.70;1.40;;;;;;;;;;5076382;28;20873;-86
2022/07/03 14:21:46;;;;;;;1.50;0.80;;;;;;;;;;5074276;28;20392;-86
2022/07/03 14:24:12;;;;;;;0.68;0.60;;;;;;;;;;5063903;28;20408;-86
2022/07/03 14:34:51;;;;;;;1.97;0.57;;;;;;;;;;5061279;28;20379;-88
2022/07/03 14:37:18;;;;;;;0.80;0.60;;;;;;;;;;5085227;28;20737;-89
2022/07/03 14:39:48;;;;;;;1.00;0.60;;;;;;;;;;5058679;28;20381;-88
2022/07/03 14:42:14;;;;;;;1.60;0.65;;;;;;;;;;5055274;28;20440;-88
2022/07/03 14:44:41;;;;;;;3.40;0.80;;;;;;;;;;5054874;28;20400;-88
2022/07/03 14:47:07;;;;;;;1.27;0.70;;;;;;;;;;5055025;28;20903;-88
2022/07/03 14:49:33;;;;;;;2.30;1.13;;;;;;;;;;5055138;28;20917;-89
2022/07/03 14:52:03;;;;;;;2.80;1.10;;;;;;;;;;5053640;28;20378;-89
2022/07/03 14:54:31;;;;;;;2.00;0.90;;;;;;;;;;5054918;28;20385;-89
2022/07/03 14:56:57;;;;;;;1.42;0.90;;;;;;;;;;5055056;28;20392;-89
2022/07/03 14:59:44;;;;;;;1.98;0.70;;;;;;;;;;5061147;28;20475;-88
2022/07/03 15:02:19;;;;;;;1.13;0.60;;;;;;;;;;5061665;28;20375;-89
2022/07/03 15:04:45;;;;;;;1.45;0.70;;;;;;;;;;5074630;28;20403;-88
2022/07/03 15:07:14;;;;;;;1.90;0.70;;;;;;;;;;5074653;28;20377;-89
2022/07/03 15:09:46;;;;;;;1.40;0.90;;;;;;;;;;5074517;28;20376;-88
2022/07/03 15:12:28;;;;;;;1.80;0.77;;;;;;;;;;5074042;28;20375;-88